createdAt,value
2022-10-24T00:00:46.418Z,101702.19
2022-10-24T00:03:52.216Z,101695.94
2022-10-24T00:06:57.912Z,101695.06
2022-10-24T00:10:05.295Z,101700.97
2022-10-24T00:13:12.403Z,101704.41
2022-10-24T00:16:18.791Z,101705.28
2022-10-24T00:19:24.516Z,101706.97
2022-10-24T00:22:30.043Z,101706.00
2022-10-24T00:25:36.425Z,101691.72
2022-10-24T00:28:41.970Z,101693.63
2022-10-24T00:31:47.889Z,101691.31
2022-10-24T00:34:53.505Z,101696.59
2022-10-24T00:37:59.548Z,101685.56
2022-10-24T00:41:05.138Z,101685.72
2022-10-24T00:44:19.867Z,101694.47
2022-10-24T00:47:28.143Z,101692.00
2022-10-24T00:50:33.937Z,101696.28
2022-10-24T00:53:45.342Z,101687.94
2022-10-24T00:57:18.447Z,101687.53
2022-10-24T01:00:28.805Z,101688.25
2022-10-24T01:03:35.321Z,101692.16
2022-10-24T01:07:02.945Z,101690.63
2022-10-24T01:10:27.129Z,101692.16
2022-10-24T01:13:57.030Z,101695.75
2022-10-24T01:17:08.787Z,101692.28
2022-10-24T01:20:40.928Z,101703.09
2022-10-24T01:24:07.924Z,101695.25
2022-10-24T01:27:49.077Z,101701.28
2022-10-24T01:31:08.098Z,101701.03
2022-10-24T01:34:48.258Z,101688.94
2022-10-24T01:38:23.069Z,101682.00
2022-10-24T01:41:31.480Z,101672.03
2022-10-24T01:44:50.486Z,101676.91
2022-10-24T01:47:59.428Z,101668.03
2022-10-24T01:51:07.554Z,101659.78
2022-10-24T01:54:14.166Z,101653.03
2022-10-24T01:57:19.696Z,101636.38
2022-10-24T02:00:26.797Z,101646.19
2022-10-24T02:03:39.726Z,101644.56
2022-10-24T02:06:47.420Z,101648.94
2022-10-24T02:10:08.706Z,101637.88
2022-10-24T02:13:30.116Z,101637.34
2022-10-24T02:16:35.881Z,101635.97
2022-10-24T02:19:41.644Z,101625.19
2022-10-24T02:22:58.561Z,101620.41
2022-10-24T02:26:09.767Z,101622.59
2022-10-24T02:29:22.881Z,101618.19
2022-10-24T02:32:39.085Z,101619.88
2022-10-24T02:35:47.879Z,101623.28
2022-10-24T02:38:56.607Z,101630.63
2022-10-24T02:42:05.163Z,101620.72
2022-10-24T02:45:13.153Z,101617.50
2022-10-24T02:48:23.757Z,101609.94
2022-10-24T02:51:32.147Z,101617.28
2022-10-24T02:54:37.670Z,101610.47
2022-10-24T02:57:43.281Z,101601.66
2022-10-24T03:00:49.050Z,101598.19
2022-10-24T03:03:54.365Z,101585.56
2022-10-24T03:07:00.101Z,101583.50
2022-10-24T03:10:06.497Z,101596.47
2022-10-24T03:13:11.929Z,101606.69
2022-10-24T03:16:17.761Z,101595.31
2022-10-24T03:19:24.148Z,101598.88
2022-10-24T03:22:30.748Z,101602.09
2022-10-24T03:25:36.820Z,101605.56
2022-10-24T03:28:42.499Z,101602.78
2022-10-24T03:31:48.244Z,101599.00
2022-10-24T03:34:53.967Z,101603.75
2022-10-24T03:37:59.908Z,101599.69
2022-10-24T03:41:05.810Z,101605.94
2022-10-24T03:44:11.216Z,101612.50
2022-10-24T03:47:16.986Z,101607.78
2022-10-24T03:50:22.600Z,101611.03
2022-10-24T03:53:27.855Z,101607.16
2022-10-24T03:56:33.320Z,101619.38
2022-10-24T03:59:39.304Z,101618.41
2022-10-24T04:02:45.272Z,101623.22
2022-10-24T04:05:51.441Z,101623.16
2022-10-24T04:08:58.183Z,101618.03
2022-10-24T04:12:04.432Z,101608.31
2022-10-24T04:15:10.813Z,101609.06
2022-10-24T04:18:16.349Z,101604.25
2022-10-24T04:21:22.247Z,101596.09
2022-10-24T04:24:27.496Z,101597.16
2022-10-24T04:27:33.051Z,101581.75
2022-10-24T04:30:38.629Z,101586.13
2022-10-24T04:33:44.197Z,101586.22
2022-10-24T04:36:49.801Z,101588.06
2022-10-24T04:39:55.669Z,101589.88
2022-10-24T04:43:01.639Z,101599.41
2022-10-24T04:46:07.344Z,101608.81
2022-10-24T04:49:13.156Z,101603.91
2022-10-24T04:52:18.752Z,101602.19
2022-10-24T04:55:24.076Z,101609.88
2022-10-24T04:58:29.242Z,101609.22
2022-10-24T05:01:34.609Z,101622.03
2022-10-24T05:04:40.646Z,101623.00
2022-10-24T05:07:47.314Z,101605.16
2022-10-24T05:10:52.762Z,101611.38
2022-10-24T05:13:58.639Z,101590.78
2022-10-24T05:17:04.236Z,101587.66
2022-10-24T05:20:10.346Z,101582.84
2022-10-24T05:23:15.401Z,101587.41
2022-10-24T05:26:20.578Z,101585.69
2022-10-24T05:29:26.105Z,101590.91
2022-10-24T05:32:33.750Z,101586.59
2022-10-24T05:35:42.452Z,101591.63
2022-10-24T05:38:47.882Z,101588.94
2022-10-24T05:41:55.284Z,101596.28
2022-10-24T05:45:01.300Z,101591.97
2022-10-24T05:48:06.959Z,101592.94
2022-10-24T05:51:12.714Z,101592.53
2022-10-24T05:54:18.223Z,101585.28
2022-10-24T05:57:23.873Z,101572.34
2022-10-24T06:00:28.961Z,101570.47
2022-10-24T06:03:34.893Z,101579.66
2022-10-24T06:06:43.007Z,101579.50
2022-10-24T06:09:48.672Z,101579.13
2022-10-24T06:12:53.939Z,101582.47
2022-10-24T06:15:59.856Z,101577.84
2022-10-24T06:19:05.560Z,101577.91
2022-10-24T06:22:11.158Z,101577.09
2022-10-24T06:25:17.909Z,101584.56
2022-10-24T06:28:23.678Z,101583.28
2022-10-24T06:31:29.362Z,101579.59
2022-10-24T06:34:36.002Z,101587.06
2022-10-24T06:37:44.399Z,101582.50
2022-10-24T06:40:52.771Z,101584.47
2022-10-24T06:43:58.381Z,101585.19
2022-10-24T06:47:03.928Z,101588.59
2022-10-24T06:50:10.137Z,101581.63
2022-10-24T06:53:15.476Z,101580.09
2022-10-24T06:56:21.081Z,101589.31
2022-10-24T06:59:27.539Z,101595.66
2022-10-24T07:02:33.051Z,101599.22
2022-10-24T07:05:38.386Z,101590.06
2022-10-24T07:08:44.324Z,101596.91
2022-10-24T07:11:49.841Z,101598.53
2022-10-24T07:14:55.477Z,101605.56
2022-10-24T07:18:00.903Z,101611.81
2022-10-24T07:21:09.975Z,101619.94
2022-10-24T07:24:15.511Z,101610.22
2022-10-24T07:27:22.442Z,101601.56
2022-10-24T07:30:27.927Z,101611.91
2022-10-24T07:33:34.837Z,101612.53
2022-10-24T07:36:43.806Z,101619.31
2022-10-24T07:39:50.041Z,101613.44
2022-10-24T07:42:55.572Z,101617.78
2022-10-24T07:49:11.671Z,101621.34
2022-10-24T07:52:17.000Z,101622.47
2022-10-24T07:55:22.801Z,101619.31
2022-10-24T07:58:29.577Z,101622.81
2022-10-24T08:01:35.118Z,101624.22
2022-10-24T08:04:40.796Z,101618.53
2022-10-24T08:07:56.311Z,101600.44
2022-10-24T08:11:18.903Z,101603.97
2022-10-24T08:14:24.029Z,101614.50
2022-10-24T08:17:29.564Z,101619.66
2022-10-24T08:20:35.284Z,101625.59
2022-10-24T08:23:44.519Z,101629.16
2022-10-24T08:26:50.638Z,101641.03
2022-10-24T08:29:56.136Z,101626.66
2022-10-24T08:33:01.685Z,101626.66
2022-10-24T08:36:33.507Z,101625.25
2022-10-24T08:39:39.498Z,101628.97
2022-10-24T08:42:46.468Z,101634.69
2022-10-24T08:46:11.433Z,101644.09
2022-10-24T08:49:50.364Z,101647.06
2022-10-24T08:53:06.506Z,101641.88
2022-10-24T08:56:13.205Z,101641.59
2022-10-24T08:59:18.837Z,101631.59
2022-10-24T09:02:29.372Z,101626.19
2022-10-24T09:05:45.931Z,101620.47
2022-10-24T09:09:11.372Z,101610.50
2022-10-24T09:12:21.763Z,101602.59
2022-10-24T09:15:31.138Z,101615.63
2022-10-24T09:18:43.815Z,101610.25
2022-10-24T09:21:51.434Z,101601.84
2022-10-24T09:25:04.190Z,101599.41
2022-10-24T09:28:13.139Z,101597.00
2022-10-24T09:31:22.405Z,101588.56
2022-10-24T09:34:27.527Z,101597.66
2022-10-24T09:37:47.398Z,101599.66
2022-10-24T09:40:55.955Z,101599.09
2022-10-24T09:44:02.387Z,101589.81
2022-10-24T09:47:25.771Z,101583.59
2022-10-24T09:50:35.557Z,101572.75
2022-10-24T09:54:18.577Z,101570.59
2022-10-24T09:57:26.811Z,101572.75
2022-10-24T10:00:37.244Z,101574.50
2022-10-24T10:03:43.417Z,101589.38
2022-10-24T10:06:50.948Z,101583.66
2022-10-24T10:09:59.905Z,101597.16
2022-10-24T10:13:16.420Z,101603.94
2022-10-24T10:16:26.400Z,101599.81
2022-10-24T10:19:38.859Z,101593.84
2022-10-24T10:22:43.938Z,101585.38
2022-10-24T10:25:49.582Z,101574.53
2022-10-24T10:29:01.809Z,101583.50
2022-10-24T10:32:23.209Z,101577.22
2022-10-24T10:35:54.571Z,101583.91
2022-10-24T10:39:18.320Z,101568.97
2022-10-24T10:42:35.721Z,101564.00
2022-10-24T10:45:42.567Z,101561.16
2022-10-24T10:49:17.173Z,101565.66
2022-10-24T10:52:30.240Z,101552.16
2022-10-24T10:55:48.319Z,101550.44
2022-10-24T10:59:19.622Z,101549.78
2022-10-24T11:02:56.095Z,101550.88
2022-10-24T11:06:09.224Z,101541.00
2022-10-24T11:09:23.822Z,101532.28
2022-10-24T11:12:32.186Z,101519.66
2022-10-24T11:15:42.883Z,101521.94
2022-10-24T11:18:53.054Z,101510.06
2022-10-24T11:22:03.453Z,101502.09
2022-10-24T11:25:41.707Z,101511.22
2022-10-24T11:28:54.661Z,101512.69
2022-10-24T11:32:34.683Z,101499.13
2022-10-24T11:35:53.326Z,101494.09
2022-10-24T11:39:22.771Z,101498.19
2022-10-24T11:42:40.647Z,101493.13
2022-10-24T11:46:09.906Z,101481.31
2022-10-24T11:49:29.404Z,101482.91
2022-10-24T11:52:45.448Z,101492.66
2022-10-24T11:56:12.479Z,101485.34
2022-10-24T11:59:24.682Z,101475.97
2022-10-24T12:02:42.053Z,101466.97
2022-10-24T12:06:09.184Z,101463.28
2022-10-24T12:09:30.855Z,101458.91
2022-10-24T12:12:45.178Z,101448.38
2022-10-24T12:16:02.618Z,101454.72
2022-10-24T12:19:18.721Z,101438.19
2022-10-24T12:22:37.575Z,101443.84
2022-10-24T12:25:47.302Z,101437.94
2022-10-24T12:29:01.344Z,101433.69
2022-10-24T12:32:51.662Z,101398.25
2022-10-24T12:35:58.789Z,101409.84
2022-10-24T12:39:04.913Z,101421.41
2022-10-24T12:42:20.317Z,101414.84
2022-10-24T12:45:33.463Z,101403.28
2022-10-24T12:48:39.260Z,101402.84
2022-10-24T12:51:45.052Z,101389.75
2022-10-24T12:54:50.572Z,101384.16
2022-10-24T12:57:56.996Z,101383.75
2022-10-24T13:01:08.245Z,101381.16
2022-10-24T13:04:13.266Z,101371.09
2022-10-24T13:07:47.151Z,101370.28
2022-10-24T13:11:13.215Z,101374.91
2022-10-24T13:14:52.899Z,101373.31
2022-10-24T13:18:10.174Z,101358.88
2022-10-24T13:24:41.139Z,101339.25
2022-10-24T13:27:46.626Z,101340.34
2022-10-24T13:31:17.805Z,101346.06
2022-10-24T13:34:29.908Z,101343.22
2022-10-24T13:37:42.813Z,101338.22
2022-10-24T13:40:48.606Z,101341.44
2022-10-24T13:44:02.928Z,101334.00
2022-10-24T13:47:17.154Z,101323.22
2022-10-24T13:50:34.945Z,101327.50
2022-10-24T13:53:53.597Z,101333.97
2022-10-24T13:57:02.002Z,101330.69
2022-10-24T14:00:24.592Z,101324.25
2022-10-24T14:03:33.476Z,101310.41
2022-10-24T14:06:38.860Z,101318.66
2022-10-24T14:09:45.191Z,101316.97
2022-10-24T14:12:57.158Z,101322.72
2022-10-24T14:16:07.139Z,101339.88
2022-10-24T14:19:17.692Z,101344.06
2022-10-24T14:22:30.806Z,101332.69
2022-10-24T14:25:38.193Z,101336.50
2022-10-24T14:28:58.664Z,101323.34
2022-10-24T14:32:08.193Z,101309.22
2022-10-24T14:35:14.859Z,101318.09
2022-10-24T14:38:22.100Z,101319.78
2022-10-24T14:41:30.707Z,101312.16
2022-10-24T14:44:38.484Z,101306.19
2022-10-24T14:47:52.855Z,101313.44
2022-10-24T14:51:11.501Z,101313.56
2022-10-24T14:54:21.568Z,101297.25
2022-10-24T14:57:29.025Z,101302.97
2022-10-24T15:00:40.364Z,101303.47
2022-10-24T15:04:29.463Z,101307.00
2022-10-24T15:07:44.933Z,101292.28
2022-10-24T15:11:22.225Z,101292.06
2022-10-24T15:14:36.679Z,101289.56
2022-10-24T15:17:42.251Z,101290.84
2022-10-24T15:20:50.988Z,101284.72
2022-10-24T15:23:59.768Z,101283.13
2022-10-24T15:27:13.778Z,101285.41
2022-10-24T15:30:21.866Z,101288.16
2022-10-24T15:33:27.126Z,101278.28
2022-10-24T15:36:36.493Z,101268.00
2022-10-24T15:39:42.747Z,101277.63
2022-10-24T15:42:48.596Z,101286.59
2022-10-24T15:45:53.936Z,101304.88
2022-10-24T15:48:58.941Z,101302.38
2022-10-24T15:52:13.258Z,101303.47
2022-10-24T15:55:23.133Z,101291.88
2022-10-24T15:58:29.180Z,101288.00
2022-10-24T16:01:52.356Z,101279.59
2022-10-24T16:04:58.438Z,101271.81
2022-10-24T16:08:05.484Z,101261.97
2022-10-24T16:11:12.563Z,101270.97
2022-10-24T16:14:21.530Z,101274.91
2022-10-24T16:17:27.284Z,101278.28
2022-10-24T16:20:32.942Z,101286.41
2022-10-24T16:23:38.325Z,101291.88
2022-10-24T16:26:43.674Z,101291.16
2022-10-24T16:29:49.556Z,101285.25
2022-10-24T16:32:55.789Z,101290.25
2022-10-24T16:36:01.453Z,101293.34
2022-10-24T16:39:08.434Z,101280.88
2022-10-24T16:42:13.765Z,101276.97
2022-10-24T16:45:20.920Z,101278.22
2022-10-24T16:48:27.717Z,101275.66
2022-10-24T16:51:33.440Z,101269.13
2022-10-24T16:54:39.875Z,101273.00
2022-10-24T16:57:45.483Z,101268.31
2022-10-24T17:00:51.396Z,101271.34
2022-10-24T17:03:56.930Z,101280.22
2022-10-24T17:07:04.695Z,101266.56
2022-10-24T17:10:11.978Z,101270.38
2022-10-24T17:13:17.515Z,101258.22
2022-10-24T17:16:23.076Z,101266.94
2022-10-24T17:19:28.910Z,101274.28
2022-10-24T17:22:34.593Z,101269.66
2022-10-24T17:25:40.653Z,101282.44
2022-10-24T17:28:45.952Z,101277.56
2022-10-24T17:31:52.131Z,101294.38
2022-10-24T17:34:59.960Z,101297.38
2022-10-24T17:38:14.372Z,101291.81
2022-10-24T17:41:28.306Z,101276.69
2022-10-24T17:44:34.119Z,101274.28
2022-10-24T17:47:39.452Z,101283.97
2022-10-24T17:50:45.671Z,101284.78
2022-10-24T17:53:52.183Z,101297.59
2022-10-24T17:56:57.676Z,101299.53
2022-10-24T18:00:03.911Z,101298.44
2022-10-24T18:03:16.660Z,101300.38
2022-10-24T18:06:22.653Z,101288.50
2022-10-24T18:09:29.972Z,101293.97
2022-10-24T18:12:38.623Z,101307.75
2022-10-24T18:15:44.083Z,101299.94
2022-10-24T18:18:50.077Z,101301.59
2022-10-24T18:21:56.059Z,101302.63
2022-10-24T18:25:02.191Z,101304.81
2022-10-24T18:28:07.845Z,101308.38
2022-10-24T18:31:19.234Z,101311.13
2022-10-24T18:34:24.859Z,101311.91
2022-10-24T18:37:30.194Z,101312.75
2022-10-24T18:40:38.464Z,101310.59
2022-10-24T18:43:44.109Z,101315.44
2022-10-24T18:46:51.978Z,101315.78
2022-10-24T18:49:57.676Z,101313.88
2022-10-24T18:53:11.075Z,101300.06
2022-10-24T18:56:18.684Z,101297.59
2022-10-24T18:59:26.878Z,101298.16
2022-10-24T19:02:38.329Z,101294.19
2022-10-24T19:05:51.990Z,101296.34
2022-10-24T19:09:00.276Z,101290.69
2022-10-24T19:12:07.321Z,101305.28
2022-10-24T19:15:14.025Z,101303.94
2022-10-24T19:18:19.452Z,101298.78
2022-10-24T19:21:26.370Z,101291.22
2022-10-24T19:24:32.766Z,101289.84
2022-10-24T19:27:38.732Z,101293.84
2022-10-24T19:30:45.794Z,101290.06
2022-10-24T19:33:53.886Z,101288.44
2022-10-24T19:37:00.461Z,101292.25
2022-10-24T19:40:07.088Z,101290.59
2022-10-24T19:43:13.029Z,101283.81
2022-10-24T19:46:20.300Z,101292.19
2022-10-24T19:49:26.806Z,101293.50
2022-10-24T19:52:32.515Z,101291.63
2022-10-24T19:55:39.310Z,101294.91
2022-10-24T19:58:45.448Z,101297.38
2022-10-24T20:01:50.908Z,101301.69
2022-10-24T20:04:56.359Z,101297.94
2022-10-24T20:08:02.164Z,101295.19
2022-10-24T20:11:09.301Z,101291.72
2022-10-24T20:14:15.658Z,101294.72
2022-10-24T20:17:21.103Z,101300.94
2022-10-24T20:20:26.751Z,101299.59
2022-10-24T20:23:33.158Z,101295.28
2022-10-24T20:26:38.697Z,101309.94
2022-10-24T20:29:44.216Z,101309.09
2022-10-24T20:32:49.819Z,101311.81
2022-10-24T20:35:59.806Z,101316.66
2022-10-24T20:39:06.735Z,101314.22
2022-10-24T20:42:12.460Z,101317.47
2022-10-24T20:45:21.955Z,101315.03
2022-10-24T20:48:29.020Z,101312.34
2022-10-24T20:51:34.528Z,101319.44
2022-10-24T20:54:39.781Z,101318.34
2022-10-24T20:57:45.199Z,101318.91
2022-10-24T21:00:50.909Z,101328.06
2022-10-24T21:03:59.127Z,101324.56
2022-10-24T21:07:04.579Z,101326.72
2022-10-24T21:10:10.268Z,101322.69
2022-10-24T21:13:15.832Z,101322.13
2022-10-24T21:16:22.062Z,101319.72
2022-10-24T21:19:27.869Z,101314.31
2022-10-24T21:22:33.422Z,101316.47
2022-10-24T21:25:39.225Z,101317.28
2022-10-24T21:28:44.710Z,101319.16
2022-10-24T21:31:51.943Z,101321.88
2022-10-24T21:34:57.970Z,101317.53
2022-10-24T21:38:03.636Z,101316.22
2022-10-24T21:41:11.359Z,101317.53
2022-10-24T21:44:16.634Z,101317.03
2022-10-24T21:47:22.431Z,101315.13
2022-10-24T21:50:27.862Z,101318.91
2022-10-24T21:53:42.130Z,101323.22
2022-10-24T21:56:48.566Z,101320.78
2022-10-24T21:59:54.026Z,101321.84
2022-10-24T22:02:59.386Z,101326.19
2022-10-24T22:06:04.726Z,101319.44
2022-10-24T22:09:19.069Z,101317.28
2022-10-24T22:12:24.808Z,101326.72
2022-10-24T22:15:30.518Z,101316.47
2022-10-24T22:18:37.107Z,101315.63
2022-10-24T22:21:48.581Z,101313.50
2022-10-24T22:24:54.357Z,101313.50
2022-10-24T22:28:00.017Z,101318.91
2022-10-24T22:31:06.325Z,101309.19
2022-10-24T22:34:16.764Z,101313.22
2022-10-24T22:37:32.037Z,101305.38
2022-10-24T22:40:38.071Z,101316.69
2022-10-24T22:43:43.880Z,101322.09
2022-10-24T22:47:01.423Z,101318.34
2022-10-24T22:50:15.763Z,101309.69
2022-10-24T22:53:27.496Z,101316.16
2022-10-24T22:56:35.755Z,101320.47
2022-10-24T22:59:41.438Z,101318.84
2022-10-24T23:02:47.541Z,101327.50
2022-10-24T23:06:04.677Z,101319.66
2022-10-24T23:09:11.663Z,101314.00
2022-10-24T23:12:20.374Z,101313.72
2022-10-24T23:15:26.333Z,101318.84
2022-10-24T23:18:31.590Z,101333.16
2022-10-24T23:21:43.347Z,101331.56
2022-10-24T23:24:50.492Z,101324.25
2022-10-24T23:28:08.254Z,101321.00
2022-10-24T23:31:13.956Z,101327.47
2022-10-24T23:34:19.973Z,101336.94
2022-10-24T23:37:41.058Z,101337.78
2022-10-24T23:40:47.168Z,101325.91
2022-10-24T23:43:52.970Z,101330.22
2022-10-24T23:47:27.070Z,101345.03
2022-10-24T23:51:16.115Z,101342.63
2022-10-24T23:54:26.526Z,101360.72
2022-10-24T23:57:32.174Z,101356.91
